CheckWX is a tool to help pilots better visualize weather data.  It is not intended as a substitute for an official pre-flight weather briefing.

13:00:57 UTC

KSYM TAF
Morehead-Rowan County Clyde A Thomas Regional Airport
Morehead, Kentucky, USA
KSYM 201120Z 2012/2112 VRB05KT P6SM SCT060 OVC080 FM201500 29009G17KT P6SM SCT050 FM210000 31004KT P6SM FEW050 FEW250

May-20@
12:00 UTC

May-20 @ 12:00 UTC

May-20@
15:00 UTC

May-20 @ 15:00 UTC

KSYM 201120Z 2012/2112 VRB05KT P6SM SCT060 OVC080
Wind
  • Variable at 5 KTS
Cloud Levels
  • Scattered at 6,000' AGL
  • Overcast at 8,000' AGL

May-20@
15:00 UTC

May-20 @ 15:00 UTC

May-21@
00:00 UTC

May-21 @ 00:00 UTC

FM201500 29009G17KT P6SM SCT050

From

From Standard forecast or significant change

Wind
  • 290° at 9 KTS
  • {Gusting to 17 KTS
Cloud Levels
  • Scattered at 5,000' AGL

May-21@
00:00 UTC

May-21 @ 00:00 UTC

May-21@
12:00 UTC

May-21 @ 12:00 UTC

FM210000 31004KT P6SM FEW050 FEW250

From

From Standard forecast or significant change

Wind
  • 310° at 4 KTS
Cloud Levels
  • Few at 5,000' AGL
  • Few at 25,000' AGL